sensor_id;sensor_type;location;lat;lon;timestamp;P1;durP1;ratioP1;P2;durP2;ratioP2
37365;SDS011;23239;51.504;7.456;2022-11-30T00:01:07;99.9;;;48.9;;
37365;SDS011;23239;51.504;7.456;2022-11-30T00:06:02;103.9;;;48.9;;
37365;SDS011;23239;51.504;7.456;2022-11-30T00:11:05;104.1;;;49.1;;
37365;SDS011;23239;51.504;7.456;2022-11-30T00:16:00;105;;;49.8;;
37365;SDS011;23239;51.504;7.456;2022-11-30T00:21:00;108.7;;;51;;
37365;SDS011;23239;51.504;7.456;2022-11-30T00:26:00;110.3;;;50.1;;
37365;SDS011;23239;51.504;7.456;2022-11-30T00:31:01;113.3;;;51.5;;
37365;SDS011;23239;51.504;7.456;2022-11-30T00:36:01;105.9;;;51.7;;
37365;SDS011;23239;51.504;7.456;2022-11-30T00:41:00;108.8;;;51.8;;
37365;SDS011;23239;51.504;7.456;2022-11-30T00:46:00;102.3;;;50.4;;
37365;SDS011;23239;51.504;7.456;2022-11-30T00:51:00;98.7;;;49;;
37365;SDS011;23239;51.504;7.456;2022-11-30T00:56:00;103.1;;;49.5;;
37365;SDS011;23239;51.504;7.456;2022-11-30T01:01:00;98.6;;;47.7;;
37365;SDS011;23239;51.504;7.456;2022-11-30T01:06:01;98.1;;;47.6;;
37365;SDS011;23239;51.504;7.456;2022-11-30T01:11:03;96.1;;;49.6;;
37365;SDS011;23239;51.504;7.456;2022-11-30T01:16:00;101;;;48;;
37365;SDS011;23239;51.504;7.456;2022-11-30T01:21:03;104.8;;;50.5;;
37365;SDS011;23239;51.504;7.456;2022-11-30T01:26:00;99;;;47.5;;
37365;SDS011;23239;51.504;7.456;2022-11-30T01:31:01;100.1;;;49.3;;
37365;SDS011;23239;51.504;7.456;2022-11-30T01:36:01;95.2;;;45.2;;
37365;SDS011;23239;51.504;7.456;2022-11-30T01:41:00;83;;;42.2;;
37365;SDS011;23239;51.504;7.456;2022-11-30T01:46:00;79.5;;;41.3;;
37365;SDS011;23239;51.504;7.456;2022-11-30T01:51:00;74.5;;;39.8;;
37365;SDS011;23239;51.504;7.456;2022-11-30T01:56:00;69.5;;;39.7;;
37365;SDS011;23239;51.504;7.456;2022-11-30T02:01:00;66.7;;;37.8;;
37365;SDS011;23239;51.504;7.456;2022-11-30T02:06:00;59.8;;;34.6;;
37365;SDS011;23239;51.504;7.456;2022-11-30T02:11:02;61.6;;;35.3;;
37365;SDS011;23239;51.504;7.456;2022-11-30T02:16:03;56.4;;;33.8;;
37365;SDS011;23239;51.504;7.456;2022-11-30T02:21:03;56;;;34.1;;
37365;SDS011;23239;51.504;7.456;2022-11-30T02:26:02;58.7;;;38.5;;
37365;SDS011;23239;51.504;7.456;2022-11-30T02:31:01;54.5;;;37.8;;
37365;SDS011;23239;51.504;7.456;2022-11-30T02:36:00;48.5;;;32.3;;
37365;SDS011;23239;51.504;7.456;2022-11-30T02:41:00;49.2;;;36.5;;
37365;SDS011;23239;51.504;7.456;2022-11-30T02:46:01;45.3;;;31.3;;
37365;SDS011;23239;51.504;7.456;2022-11-30T02:51:01;46.4;;;32.8;;
37365;SDS011;23239;51.504;7.456;2022-11-30T02:56:00;47.3;;;35.4;;
37365;SDS011;23239;51.504;7.456;2022-11-30T03:01:00;45.7;;;35.5;;
37365;SDS011;23239;51.504;7.456;2022-11-30T03:06:00;46.6;;;35.6;;
37365;SDS011;23239;51.504;7.456;2022-11-30T03:11:00;47.3;;;36.8;;
37365;SDS011;23239;51.504;7.456;2022-11-30T03:16:04;45;;;36.4;;
37365;SDS011;23239;51.504;7.456;2022-11-30T03:21:03;50.7;;;38.4;;
37365;SDS011;23239;51.504;7.456;2022-11-30T03:26:00;50.3;;;37.6;;
37365;SDS011;23239;51.504;7.456;2022-11-30T03:31:00;46.3;;;37.5;;
37365;SDS011;23239;51.504;7.456;2022-11-30T03:36:01;48.9;;;37.9;;
37365;SDS011;23239;51.504;7.456;2022-11-30T03:41:01;49.5;;;38.2;;
37365;SDS011;23239;51.504;7.456;2022-11-30T03:46:00;52.7;;;38.2;;
37365;SDS011;23239;51.504;7.456;2022-11-30T03:51:00;49.7;;;37.5;;
37365;SDS011;23239;51.504;7.456;2022-11-30T03:56:01;49.2;;;39.2;;
37365;SDS011;23239;51.504;7.456;2022-11-30T04:01:01;44.8;;;37;;
37365;SDS011;23239;51.504;7.456;2022-11-30T04:06:00;45.2;;;35.1;;
37365;SDS011;23239;51.504;7.456;2022-11-30T04:11:00;43.8;;;35.7;;
37365;SDS011;23239;51.504;7.456;2022-11-30T04:16:00;41.1;;;33.9;;
37365;SDS011;23239;51.504;7.456;2022-11-30T04:21:00;39.5;;;31.6;;
37365;SDS011;23239;51.504;7.456;2022-11-30T04:26:01;39.6;;;32.3;;
37365;SDS011;23239;51.504;7.456;2022-11-30T04:31:00;39.7;;;32.5;;
37365;SDS011;23239;51.504;7.456;2022-11-30T04:36:01;39.9;;;32.4;;
37365;SDS011;23239;51.504;7.456;2022-11-30T04:41:04;42.5;;;33;;
37365;SDS011;23239;51.504;7.456;2022-11-30T04:46:00;39.5;;;33.3;;
37365;SDS011;23239;51.504;7.456;2022-11-30T04:51:00;44.2;;;33.8;;
37365;SDS011;23239;51.504;7.456;2022-11-30T04:56:03;39.9;;;31.7;;
37365;SDS011;23239;51.504;7.456;2022-11-30T05:01:00;41.4;;;33.2;;
37365;SDS011;23239;51.504;7.456;2022-11-30T05:06:00;43;;;33.5;;
37365;SDS011;23239;51.504;7.456;2022-11-30T05:11:00;38.8;;;31.5;;
37365;SDS011;23239;51.504;7.456;2022-11-30T05:16:00;38.8;;;30.6;;
37365;SDS011;23239;51.504;7.456;2022-11-30T05:21:00;39.1;;;31.4;;
37365;SDS011;23239;51.504;7.456;2022-11-30T05:26:00;36.5;;;30.2;;
37365;SDS011;23239;51.504;7.456;2022-11-30T05:31:01;41.2;;;32;;
37365;SDS011;23239;51.504;7.456;2022-11-30T05:36:00;41.2;;;30.5;;
37365;SDS011;23239;51.504;7.456;2022-11-30T05:41:01;40.2;;;31.1;;
37365;SDS011;23239;51.504;7.456;2022-11-30T05:46:01;41.9;;;31.3;;
37365;SDS011;23239;51.504;7.456;2022-11-30T05:51:03;37.4;;;30.5;;
37365;SDS011;23239;51.504;7.456;2022-11-30T05:56:01;37.7;;;29.6;;
37365;SDS011;23239;51.504;7.456;2022-11-30T06:01:00;37.5;;;30.4;;
37365;SDS011;23239;51.504;7.456;2022-11-30T06:06:00;39.3;;;31.6;;
37365;SDS011;23239;51.504;7.456;2022-11-30T06:11:00;36.4;;;28.2;;
37365;SDS011;23239;51.504;7.456;2022-11-30T06:16:01;36.1;;;26.8;;
37365;SDS011;23239;51.504;7.456;2022-11-30T06:21:01;38.9;;;29.5;;
37365;SDS011;23239;51.504;7.456;2022-11-30T06:26:02;38.2;;;30.8;;
37365;SDS011;23239;51.504;7.456;2022-11-30T06:31:01;40.3;;;30.5;;
37365;SDS011;23239;51.504;7.456;2022-11-30T06:36:00;40.3;;;30.9;;
37365;SDS011;23239;51.504;7.456;2022-11-30T06:41:02;37.4;;;31.3;;
37365;SDS011;23239;51.504;7.456;2022-11-30T06:46:01;40.7;;;29.8;;
37365;SDS011;23239;51.504;7.456;2022-11-30T06:51:03;36.8;;;29;;
37365;SDS011;23239;51.504;7.456;2022-11-30T06:56:02;36;;;29.2;;
37365;SDS011;23239;51.504;7.456;2022-11-30T07:01:02;38.2;;;29.8;;
37365;SDS011;23239;51.504;7.456;2022-11-30T07:06:04;42.4;;;31.3;;
37365;SDS011;23239;51.504;7.456;2022-11-30T07:11:00;41.5;;;31.3;;
37365;SDS011;23239;51.504;7.456;2022-11-30T07:16:01;40.6;;;30.1;;
37365;SDS011;23239;51.504;7.456;2022-11-30T07:21:01;45.2;;;32.9;;
37365;SDS011;23239;51.504;7.456;2022-11-30T07:26:01;40.9;;;31;;
37365;SDS011;23239;51.504;7.456;2022-11-30T07:31:00;41.3;;;30.9;;
37365;SDS011;23239;51.504;7.456;2022-11-30T07:36:00;47.6;;;34.8;;
37365;SDS011;23239;51.504;7.456;2022-11-30T07:41:00;47;;;32.2;;
37365;SDS011;23239;51.504;7.456;2022-11-30T07:46:01;47.1;;;34.7;;
37365;SDS011;23239;51.504;7.456;2022-11-30T07:51:01;47.4;;;34.6;;
37365;SDS011;23239;51.504;7.456;2022-11-30T07:56:01;48;;;35.5;;
37365;SDS011;23239;51.504;7.456;2022-11-30T08:01:01;52.3;;;36.4;;
37365;SDS011;23239;51.504;7.456;2022-11-30T08:06:01;47.1;;;35.4;;
37365;SDS011;23239;51.504;7.456;2022-11-30T08:11:00;52.7;;;36.1;;
37365;SDS011;23239;51.504;7.456;2022-11-30T08:16:01;46.8;;;34.4;;
37365;SDS011;23239;51.504;7.456;2022-11-30T08:21:01;46.3;;;34;;
37365;SDS011;23239;51.504;7.456;2022-11-30T08:26:01;49.4;;;36.5;;
37365;SDS011;23239;51.504;7.456;2022-11-30T08:31:01;50.2;;;34.8;;
37365;SDS011;23239;51.504;7.456;2022-11-30T08:36:04;48.8;;;34.9;;
37365;SDS011;23239;51.504;7.456;2022-11-30T08:41:00;52.1;;;37;;
37365;SDS011;23239;51.504;7.456;2022-11-30T08:46:00;55.6;;;36.8;;
37365;SDS011;23239;51.504;7.456;2022-11-30T08:51:00;56.9;;;39;;
37365;SDS011;23239;51.504;7.456;2022-11-30T08:56:01;54.8;;;35.4;;
37365;SDS011;23239;51.504;7.456;2022-11-30T09:01:04;51.7;;;35.5;;
37365;SDS011;23239;51.504;7.456;2022-11-30T09:06:02;53.3;;;36.7;;
37365;SDS011;23239;51.504;7.456;2022-11-30T09:11:08;52.5;;;36.4;;
37365;SDS011;23239;51.504;7.456;2022-11-30T09:16:00;52.7;;;36;;
37365;SDS011;23239;51.504;7.456;2022-11-30T09:21:01;53.2;;;37.5;;
37365;SDS011;23239;51.504;7.456;2022-11-30T09:26:01;53.4;;;37.6;;
37365;SDS011;23239;51.504;7.456;2022-11-30T09:31:01;52.3;;;37.7;;
37365;SDS011;23239;51.504;7.456;2022-11-30T09:36:01;50.5;;;36.3;;
37365;SDS011;23239;51.504;7.456;2022-11-30T09:41:02;49.1;;;34.6;;
37365;SDS011;23239;51.504;7.456;2022-11-30T09:46:02;55;;;37.1;;
37365;SDS011;23239;51.504;7.456;2022-11-30T09:51:02;48.1;;;34.6;;
37365;SDS011;23239;51.504;7.456;2022-11-30T09:56:00;46.2;;;33.4;;
37365;SDS011;23239;51.504;7.456;2022-11-30T10:01:00;47.4;;;33.7;;
37365;SDS011;23239;51.504;7.456;2022-11-30T10:06:02;48.2;;;34.1;;
37365;SDS011;23239;51.504;7.456;2022-11-30T10:11:06;46.2;;;32.5;;
37365;SDS011;23239;51.504;7.456;2022-11-30T10:16:04;44.9;;;33.6;;
37365;SDS011;23239;51.504;7.456;2022-11-30T10:21:02;49.6;;;37.4;;
37365;SDS011;23239;51.504;7.456;2022-11-30T10:26:02;44;;;32.4;;
37365;SDS011;23239;51.504;7.456;2022-11-30T10:31:00;41.7;;;30.9;;
37365;SDS011;23239;51.504;7.456;2022-11-30T10:36:02;39.3;;;30.5;;
37365;SDS011;23239;51.504;7.456;2022-11-30T10:41:02;37.7;;;29;;
37365;SDS011;23239;51.504;7.456;2022-11-30T10:46:00;38;;;27.6;;
37365;SDS011;23239;51.504;7.456;2022-11-30T10:51:00;37.6;;;27.5;;
37365;SDS011;23239;51.504;7.456;2022-11-30T10:56:02;39;;;28.7;;
37365;SDS011;23239;51.504;7.456;2022-11-30T11:01:02;41.9;;;31.8;;
37365;SDS011;23239;51.504;7.456;2022-11-30T11:06:01;49.8;;;34.3;;
37365;SDS011;23239;51.504;7.456;2022-11-30T11:11:00;47.8;;;34.7;;
37365;SDS011;23239;51.504;7.456;2022-11-30T11:16:01;45.7;;;32.7;;
37365;SDS011;23239;51.504;7.456;2022-11-30T11:21:02;45.3;;;33.2;;
37365;SDS011;23239;51.504;7.456;2022-11-30T11:26:00;45.9;;;32.7;;
37365;SDS011;23239;51.504;7.456;2022-11-30T11:31:13;45.2;;;33.5;;
37365;SDS011;23239;51.504;7.456;2022-11-30T11:36:11;56.8;;;39.1;;
37365;SDS011;23239;51.504;7.456;2022-11-30T11:41:01;50.7;;;37.3;;
37365;SDS011;23239;51.504;7.456;2022-11-30T11:46:09;43.7;;;31.6;;
37365;SDS011;23239;51.504;7.456;2022-11-30T11:51:01;42.8;;;31.2;;
37365;SDS011;23239;51.504;7.456;2022-11-30T11:56:02;37;;;27.4;;
37365;SDS011;23239;51.504;7.456;2022-11-30T12:01:00;33.6;;;25.1;;
37365;SDS011;23239;51.504;7.456;2022-11-30T12:06:01;32;;;23.5;;
37365;SDS011;23239;51.504;7.456;2022-11-30T12:11:01;32.3;;;23.5;;
37365;SDS011;23239;51.504;7.456;2022-11-30T12:16:03;29.3;;;22.7;;
37365;SDS011;23239;51.504;7.456;2022-11-30T12:21:01;31.7;;;23.7;;
37365;SDS011;23239;51.504;7.456;2022-11-30T12:26:02;33.9;;;23.4;;
37365;SDS011;23239;51.504;7.456;2022-11-30T12:31:05;28.8;;;21.9;;
37365;SDS011;23239;51.504;7.456;2022-11-30T12:36:01;28.8;;;22;;
37365;SDS011;23239;51.504;7.456;2022-11-30T12:41:03;29.9;;;23;;
37365;SDS011;23239;51.504;7.456;2022-11-30T12:46:02;29.7;;;23.6;;
37365;SDS011;23239;51.504;7.456;2022-11-30T12:51:03;29;;;22.2;;
37365;SDS011;23239;51.504;7.456;2022-11-30T12:56:04;29.2;;;22.7;;
37365;SDS011;23239;51.504;7.456;2022-11-30T13:01:04;29.5;;;23.3;;
37365;SDS011;23239;51.504;7.456;2022-11-30T13:06:04;30;;;21.2;;
37365;SDS011;23239;51.504;7.456;2022-11-30T13:11:01;32.5;;;23.3;;
37365;SDS011;23239;51.504;7.456;2022-11-30T13:16:02;32.6;;;23.9;;
37365;SDS011;23239;51.504;7.456;2022-11-30T13:21:02;32.8;;;23.6;;
37365;SDS011;23239;51.504;7.456;2022-11-30T13:26:02;29.8;;;22.1;;
37365;SDS011;23239;51.504;7.456;2022-11-30T13:31:02;31.6;;;24.5;;
37365;SDS011;23239;51.504;7.456;2022-11-30T13:36:02;33.1;;;26.7;;
37365;SDS011;23239;51.504;7.456;2022-11-30T13:41:01;29;;;22.3;;
37365;SDS011;23239;51.504;7.456;2022-11-30T13:46:02;32.1;;;24.9;;
37365;SDS011;23239;51.504;7.456;2022-11-30T13:51:00;31.2;;;24.1;;
37365;SDS011;23239;51.504;7.456;2022-11-30T13:56:01;28.9;;;22.6;;
37365;SDS011;23239;51.504;7.456;2022-11-30T14:01:02;28.1;;;23;;
37365;SDS011;23239;51.504;7.456;2022-11-30T14:06:45;27.7;;;21.6;;
37365;SDS011;23239;51.504;7.456;2022-11-30T14:16:01;25.1;;;20.7;;
37365;SDS011;23239;51.504;7.456;2022-11-30T14:21:01;27.5;;;23.4;;
37365;SDS011;23239;51.504;7.456;2022-11-30T14:26:02;27;;;22.4;;
37365;SDS011;23239;51.504;7.456;2022-11-30T14:31:00;26.2;;;22.4;;
37365;SDS011;23239;51.504;7.456;2022-11-30T14:36:00;27.6;;;22.1;;
37365;SDS011;23239;51.504;7.456;2022-11-30T14:41:00;25.9;;;20.9;;
37365;SDS011;23239;51.504;7.456;2022-11-30T14:46:01;25.8;;;20.9;;
37365;SDS011;23239;51.504;7.456;2022-11-30T14:51:01;23.9;;;20.8;;
37365;SDS011;23239;51.504;7.456;2022-11-30T14:56:03;30.9;;;23.6;;
37365;SDS011;23239;51.504;7.456;2022-11-30T15:01:01;36.5;;;27.1;;
37365;SDS011;23239;51.504;7.456;2022-11-30T15:06:01;41;;;29.5;;
37365;SDS011;23239;51.504;7.456;2022-11-30T15:11:02;38.9;;;27.8;;
37365;SDS011;23239;51.504;7.456;2022-11-30T15:16:00;40.5;;;27.7;;
37365;SDS011;23239;51.504;7.456;2022-11-30T15:21:01;47.3;;;29.6;;
37365;SDS011;23239;51.504;7.456;2022-11-30T15:26:01;41.9;;;30;;
37365;SDS011;23239;51.504;7.456;2022-11-30T15:31:01;47;;;33.1;;
37365;SDS011;23239;51.504;7.456;2022-11-30T15:36:01;53.3;;;34.6;;
37365;SDS011;23239;51.504;7.456;2022-11-30T15:41:01;50.5;;;32.7;;
37365;SDS011;23239;51.504;7.456;2022-11-30T15:46:00;52.8;;;34.6;;
37365;SDS011;23239;51.504;7.456;2022-11-30T15:51:01;61.6;;;38.6;;
37365;SDS011;23239;51.504;7.456;2022-11-30T15:56:02;64.6;;;40.6;;
37365;SDS011;23239;51.504;7.456;2022-11-30T16:01:02;70.2;;;45.5;;
37365;SDS011;23239;51.504;7.456;2022-11-30T16:06:01;57.4;;;38.3;;
37365;SDS011;23239;51.504;7.456;2022-11-30T16:11:00;47.8;;;33.6;;
37365;SDS011;23239;51.504;7.456;2022-11-30T16:16:00;51.4;;;35.6;;
37365;SDS011;23239;51.504;7.456;2022-11-30T16:21:01;49.3;;;33.5;;
37365;SDS011;23239;51.504;7.456;2022-11-30T16:26:00;47.2;;;31.1;;
37365;SDS011;23239;51.504;7.456;2022-11-30T16:31:00;34.3;;;26.2;;
37365;SDS011;23239;51.504;7.456;2022-11-30T16:36:01;37.3;;;28.3;;
37365;SDS011;23239;51.504;7.456;2022-11-30T16:41:09;33.8;;;24.8;;
37365;SDS011;23239;51.504;7.456;2022-11-30T16:46:00;29.5;;;23.2;;
37365;SDS011;23239;51.504;7.456;2022-11-30T16:51:00;29.6;;;23.7;;
37365;SDS011;23239;51.504;7.456;2022-11-30T16:56:01;31.8;;;23.4;;
37365;SDS011;23239;51.504;7.456;2022-11-30T17:01:00;29.6;;;22.8;;
37365;SDS011;23239;51.504;7.456;2022-11-30T17:06:00;25.7;;;20.9;;
37365;SDS011;23239;51.504;7.456;2022-11-30T17:11:00;23.2;;;18.9;;
37365;SDS011;23239;51.504;7.456;2022-11-30T17:16:00;25.4;;;20;;
37365;SDS011;23239;51.504;7.456;2022-11-30T17:21:00;22.4;;;18.6;;
37365;SDS011;23239;51.504;7.456;2022-11-30T17:26:00;22.1;;;17.9;;
37365;SDS011;23239;51.504;7.456;2022-11-30T17:31:01;26;;;21.6;;
37365;SDS011;23239;51.504;7.456;2022-11-30T17:36:01;27.7;;;21.8;;
37365;SDS011;23239;51.504;7.456;2022-11-30T17:41:02;29.9;;;22.2;;
37365;SDS011;23239;51.504;7.456;2022-11-30T17:46:02;37.5;;;28.6;;
37365;SDS011;23239;51.504;7.456;2022-11-30T17:51:00;38.4;;;29.4;;
37365;SDS011;23239;51.504;7.456;2022-11-30T17:56:01;44.1;;;30.9;;
37365;SDS011;23239;51.504;7.456;2022-11-30T18:01:00;38.5;;;29.9;;
37365;SDS011;23239;51.504;7.456;2022-11-30T18:06:01;41.4;;;30.1;;
37365;SDS011;23239;51.504;7.456;2022-11-30T18:11:05;30.7;;;24.2;;
37365;SDS011;23239;51.504;7.456;2022-11-30T18:16:09;28.1;;;22.1;;
37365;SDS011;23239;51.504;7.456;2022-11-30T18:21:02;25.1;;;18.7;;
37365;SDS011;23239;51.504;7.456;2022-11-30T18:26:01;31;;;23.2;;
37365;SDS011;23239;51.504;7.456;2022-11-30T18:31:01;27.3;;;22.4;;
37365;SDS011;23239;51.504;7.456;2022-11-30T18:36:01;25.1;;;19.7;;
37365;SDS011;23239;51.504;7.456;2022-11-30T18:41:01;26.1;;;21.1;;
37365;SDS011;23239;51.504;7.456;2022-11-30T18:46:01;23;;;19.4;;
37365;SDS011;23239;51.504;7.456;2022-11-30T18:51:08;24.4;;;19.3;;
37365;SDS011;23239;51.504;7.456;2022-11-30T18:56:05;25.1;;;19.5;;
37365;SDS011;23239;51.504;7.456;2022-11-30T19:01:04;27.9;;;23.1;;
37365;SDS011;23239;51.504;7.456;2022-11-30T19:06:01;26;;;22.2;;
37365;SDS011;23239;51.504;7.456;2022-11-30T19:11:01;30.4;;;24.2;;
37365;SDS011;23239;51.504;7.456;2022-11-30T19:16:01;30.8;;;22.7;;
37365;SDS011;23239;51.504;7.456;2022-11-30T19:21:04;31.9;;;24.6;;
37365;SDS011;23239;51.504;7.456;2022-11-30T19:26:01;33.1;;;26.4;;
37365;SDS011;23239;51.504;7.456;2022-11-30T19:31:04;36.4;;;28.5;;
37365;SDS011;23239;51.504;7.456;2022-11-30T19:36:01;37.1;;;28.7;;
37365;SDS011;23239;51.504;7.456;2022-11-30T19:41:03;37.8;;;29;;
37365;SDS011;23239;51.504;7.456;2022-11-30T19:46:02;40;;;29.8;;
37365;SDS011;23239;51.504;7.456;2022-11-30T19:51:02;39.7;;;29.7;;
37365;SDS011;23239;51.504;7.456;2022-11-30T19:56:02;51;;;34.1;;
37365;SDS011;23239;51.504;7.456;2022-11-30T20:01:01;45.2;;;32.1;;
37365;SDS011;23239;51.504;7.456;2022-11-30T20:06:01;44.3;;;31.9;;
37365;SDS011;23239;51.504;7.456;2022-11-30T20:11:04;37.1;;;27.6;;
37365;SDS011;23239;51.504;7.456;2022-11-30T20:16:04;37.5;;;28.1;;
37365;SDS011;23239;51.504;7.456;2022-11-30T20:21:09;40.1;;;28.6;;
37365;SDS011;23239;51.504;7.456;2022-11-30T20:26:04;44.1;;;30.7;;
37365;SDS011;23239;51.504;7.456;2022-11-30T20:31:01;42.1;;;29.9;;
37365;SDS011;23239;51.504;7.456;2022-11-30T20:36:01;42.5;;;29.8;;
37365;SDS011;23239;51.504;7.456;2022-11-30T20:41:01;41.2;;;28.6;;
37365;SDS011;23239;51.504;7.456;2022-11-30T20:46:01;40.3;;;28.5;;
37365;SDS011;23239;51.504;7.456;2022-11-30T20:51:05;41.4;;;28.3;;
37365;SDS011;23239;51.504;7.456;2022-11-30T20:56:00;42.4;;;28.8;;
37365;SDS011;23239;51.504;7.456;2022-11-30T21:01:01;43;;;30.2;;
37365;SDS011;23239;51.504;7.456;2022-11-30T21:06:01;44.2;;;30.1;;
37365;SDS011;23239;51.504;7.456;2022-11-30T21:11:01;43.8;;;29;;
37365;SDS011;23239;51.504;7.456;2022-11-30T21:16:01;42.9;;;29.6;;
37365;SDS011;23239;51.504;7.456;2022-11-30T21:21:01;45.2;;;30.7;;
37365;SDS011;23239;51.504;7.456;2022-11-30T21:26:01;44.2;;;30.8;;
37365;SDS011;23239;51.504;7.456;2022-11-30T21:31:01;44.9;;;30.3;;
37365;SDS011;23239;51.504;7.456;2022-11-30T21:36:03;41.2;;;28.7;;
37365;SDS011;23239;51.504;7.456;2022-11-30T21:41:01;44.1;;;31.1;;
37365;SDS011;23239;51.504;7.456;2022-11-30T21:46:01;45.1;;;31.7;;
37365;SDS011;23239;51.504;7.456;2022-11-30T21:51:02;44.6;;;31.2;;
37365;SDS011;23239;51.504;7.456;2022-11-30T21:56:01;44.8;;;31.8;;
37365;SDS011;23239;51.504;7.456;2022-11-30T22:01:01;44.4;;;32;;
37365;SDS011;23239;51.504;7.456;2022-11-30T22:06:02;43.5;;;31.1;;
37365;SDS011;23239;51.504;7.456;2022-11-30T22:11:01;43;;;31.4;;
37365;SDS011;23239;51.504;7.456;2022-11-30T22:16:01;41.1;;;29.7;;
37365;SDS011;23239;51.504;7.456;2022-11-30T22:21:01;39.6;;;29.3;;
37365;SDS011;23239;51.504;7.456;2022-11-30T22:26:09;40.3;;;29.1;;
37365;SDS011;23239;51.504;7.456;2022-11-30T22:31:01;43.2;;;30.4;;
37365;SDS011;23239;51.504;7.456;2022-11-30T22:36:01;45;;;30.5;;
37365;SDS011;23239;51.504;7.456;2022-11-30T22:41:02;45.5;;;31.2;;
37365;SDS011;23239;51.504;7.456;2022-11-30T22:46:02;47.7;;;31.5;;
37365;SDS011;23239;51.504;7.456;2022-11-30T22:51:01;49.4;;;32.5;;
37365;SDS011;23239;51.504;7.456;2022-11-30T22:56:01;48.4;;;32.7;;
37365;SDS011;23239;51.504;7.456;2022-11-30T23:01:09;48.8;;;32.9;;
37365;SDS011;23239;51.504;7.456;2022-11-30T23:06:01;56.9;;;35.5;;
37365;SDS011;23239;51.504;7.456;2022-11-30T23:11:02;56.7;;;35.7;;
37365;SDS011;23239;51.504;7.456;2022-11-30T23:16:01;58.9;;;38.1;;
37365;SDS011;23239;51.504;7.456;2022-11-30T23:21:03;59.1;;;39.2;;
37365;SDS011;23239;51.504;7.456;2022-11-30T23:26:08;57.6;;;37.2;;
37365;SDS011;23239;51.504;7.456;2022-11-30T23:31:01;67.3;;;40.6;;
37365;SDS011;23239;51.504;7.456;2022-11-30T23:36:01;68.9;;;42.6;;
37365;SDS011;23239;51.504;7.456;2022-11-30T23:41:01;69.6;;;41.9;;
37365;SDS011;23239;51.504;7.456;2022-11-30T23:46:01;71.3;;;40.9;;
37365;SDS011;23239;51.504;7.456;2022-11-30T23:51:01;72;;;42.8;;
37365;SDS011;23239;51.504;7.456;2022-11-30T23:56:01;83.9;;;47.5;;
